Terminal Aerodrome Forecast
Issued by NWS Cleveland, OH

Home | Current Version | Previous Version | Text Only | Print | Product List | Glossary On
Versions: 1 2 3 4 5 6 7 8 9 10 11 12 13 14 15 16 17 18
000
FTUS41 KCLE 240539
TAFCAK
TAF
KCAK 240539Z 2406/2506 21004KT P6SM SKC
     FM241400 20008KT P6SM SKC
     FM241700 20012KT P6SM FEW250
     FM250400 20012KT P6SM BKN200=

USA.gov is the U.S. government's official web portal to all federal, state and local government web resources and services.